sensor_id;sensor_type;location;lat;lon;timestamp;pressure;altitude;pressure_sealevel;temperature;humidity
35694;BME280;21812;55.536;37.664;2023-07-29T00:02:10;98753.00;;;19.05;80.34
35694;BME280;21812;55.536;37.664;2023-07-29T00:04:36;98748.16;;;19.02;79.11
35694;BME280;21812;55.536;37.664;2023-07-29T00:07:02;98760.63;;;19.29;81.82
35694;BME280;21812;55.536;37.664;2023-07-29T00:09:28;98761.66;;;19.23;78.00
35694;BME280;21812;55.536;37.664;2023-07-29T00:11:53;98751.16;;;19.21;78.75
35694;BME280;21812;55.536;37.664;2023-07-29T00:14:19;98754.63;;;19.47;80.67
35694;BME280;21812;55.536;37.664;2023-07-29T00:16:45;98745.44;;;19.33;75.62
35694;BME280;21812;55.536;37.664;2023-07-29T00:19:11;98762.22;;;19.45;76.50
35694;BME280;21812;55.536;37.664;2023-07-29T00:21:36;98752.19;;;19.30;73.92
35694;BME280;21812;55.536;37.664;2023-07-29T00:24:02;98761.16;;;19.31;75.66
35694;BME280;21812;55.536;37.664;2023-07-29T00:26:28;98758.44;;;19.36;77.94
35694;BME280;21812;55.536;37.664;2023-07-29T00:28:55;98757.91;;;19.44;78.51
35694;BME280;21812;55.536;37.664;2023-07-29T00:31:21;98748.16;;;19.33;74.94
35694;BME280;21812;55.536;37.664;2023-07-29T00:33:47;98745.44;;;19.43;76.69
35694;BME280;21812;55.536;37.664;2023-07-29T00:36:14;98746.53;;;19.37;76.94
35694;BME280;21812;55.536;37.664;2023-07-29T00:38:39;98741.13;;;19.22;75.58
35694;BME280;21812;55.536;37.664;2023-07-29T00:41:06;98733.00;;;19.37;79.46
35694;BME280;21812;55.536;37.664;2023-07-29T00:43:32;98726.22;;;19.50;77.90
35694;BME280;21812;55.536;37.664;2023-07-29T00:46:00;98722.16;;;19.52;77.23
35694;BME280;21812;55.536;37.664;2023-07-29T00:48:26;98729.72;;;19.50;77.30
35694;BME280;21812;55.536;37.664;2023-07-29T00:50:52;98731.94;;;19.18;74.88
35694;BME280;21812;55.536;37.664;2023-07-29T00:53:18;98740.31;;;19.37;78.24
35694;BME280;21812;55.536;37.664;2023-07-29T00:55:44;98740.28;;;19.42;77.86
35694;BME280;21812;55.536;37.664;2023-07-29T00:58:10;98732.97;;;19.47;77.42
35694;BME280;21812;55.536;37.664;2023-07-29T01:00:37;98731.91;;;19.23;76.43
35694;BME280;21812;55.536;37.664;2023-07-29T01:03:03;98720.53;;;18.95;74.98
35694;BME280;21812;55.536;37.664;2023-07-29T01:05:32;98697.00;;;19.11;78.01
35694;BME280;21812;55.536;37.664;2023-07-29T01:08:20;98718.38;;;19.48;79.25
35694;BME280;21812;55.536;37.664;2023-07-29T01:11:26;98735.66;;;19.68;79.55
35694;BME280;21812;55.536;37.664;2023-07-29T01:14:30;98730.78;;;19.70;77.94
35694;BME280;21812;55.536;37.664;2023-07-29T01:17:03;98702.94;;;19.44;76.98
35694;BME280;21812;55.536;37.664;2023-07-29T01:22:23;98698.63;;;18.91;74.35
35694;BME280;21812;55.536;37.664;2023-07-29T01:24:49;98724.59;;;19.13;78.53
35694;BME280;21812;55.536;37.664;2023-07-29T01:27:15;98719.22;;;19.08;77.21
35694;BME280;21812;55.536;37.664;2023-07-29T01:29:41;98710.28;;;19.18;77.93
35694;BME280;21812;55.536;37.664;2023-07-29T01:32:11;98700.78;;;19.30;77.60
35694;BME280;21812;55.536;37.664;2023-07-29T01:34:45;98703.75;;;19.39;75.17
35694;BME280;21812;55.536;37.664;2023-07-29T01:37:17;98662.09;;;19.20;78.77
35694;BME280;21812;55.536;37.664;2023-07-29T01:39:45;98699.94;;;19.50;78.72
35694;BME280;21812;55.536;37.664;2023-07-29T01:42:13;98669.66;;;19.28;77.11
35694;BME280;21812;55.536;37.664;2023-07-29T01:44:39;98693.47;;;19.46;77.40
35694;BME280;21812;55.536;37.664;2023-07-29T01:47:05;98695.09;;;19.37;75.85
35694;BME280;21812;55.536;37.664;2023-07-29T01:49:33;98707.00;;;19.41;77.53
35694;BME280;21812;55.536;37.664;2023-07-29T01:51:59;98705.13;;;19.21;74.63
35694;BME280;21812;55.536;37.664;2023-07-29T01:54:25;98704.31;;;19.05;74.39
35694;BME280;21812;55.536;37.664;2023-07-29T01:56:51;98716.22;;;18.94;77.29
35694;BME280;21812;55.536;37.664;2023-07-29T01:59:17;98722.69;;;18.83;74.64
35694;BME280;21812;55.536;37.664;2023-07-29T02:01:42;98743.28;;;18.89;75.35
35694;BME280;21812;55.536;37.664;2023-07-29T02:04:08;98746.50;;;18.96;78.39
35694;BME280;21812;55.536;37.664;2023-07-29T02:06:34;98748.41;;;19.01;76.49
35694;BME280;21812;55.536;37.664;2023-07-29T02:09:00;98750.56;;;18.99;77.91
35694;BME280;21812;55.536;37.664;2023-07-29T02:11:26;98752.44;;;18.98;79.46
35694;BME280;21812;55.536;37.664;2023-07-29T02:13:55;98753.56;;;19.12;79.90
35694;BME280;21812;55.536;37.664;2023-07-29T02:16:21;98761.94;;;19.01;75.78
35694;BME280;21812;55.536;37.664;2023-07-29T02:18:48;98766.78;;;18.83;75.33
35694;BME280;21812;55.536;37.664;2023-07-29T02:21:15;98774.56;;;18.74;77.07
35694;BME280;21812;55.536;37.664;2023-07-29T02:23:41;98761.56;;;18.66;77.06
35694;BME280;21812;55.536;37.664;2023-07-29T02:26:07;98759.66;;;18.62;75.54
35694;BME280;21812;55.536;37.664;2023-07-29T02:28:33;98759.97;;;18.75;79.10
35694;BME280;21812;55.536;37.664;2023-07-29T02:33:40;98737.28;;;18.82;78.95
35694;BME280;21812;55.536;37.664;2023-07-29T02:36:06;98741.56;;;18.72;77.04
35694;BME280;21812;55.536;37.664;2023-07-29T02:38:32;98736.78;;;18.95;79.49
35694;BME280;21812;55.536;37.664;2023-07-29T02:40:57;98741.38;;;19.05;79.37
35694;BME280;21812;55.536;37.664;2023-07-29T02:43:23;98734.59;;;19.07;77.42
35694;BME280;21812;55.536;37.664;2023-07-29T02:45:49;98729.22;;;19.18;76.83
35694;BME280;21812;55.536;37.664;2023-07-29T02:48:14;98723.25;;;19.31;78.55
35694;BME280;21812;55.536;37.664;2023-07-29T02:50:40;98715.66;;;19.48;77.77
35694;BME280;21812;55.536;37.664;2023-07-29T02:53:06;98716.22;;;19.14;73.71
35694;BME280;21812;55.536;37.664;2023-07-29T02:55:32;98705.97;;;19.11;77.19
35694;BME280;21812;55.536;37.664;2023-07-29T02:57:57;98708.66;;;19.06;74.60
35694;BME280;21812;55.536;37.664;2023-07-29T03:00:23;98699.44;;;19.07;77.40
35694;BME280;21812;55.536;37.664;2023-07-29T03:02:50;98706.47;;;18.93;75.53
35694;BME280;21812;55.536;37.664;2023-07-29T03:05:16;98703.22;;;19.01;77.35
35694;BME280;21812;55.536;37.664;2023-07-29T03:07:42;98706.47;;;19.03;78.19
35694;BME280;21812;55.536;37.664;2023-07-29T03:10:08;98708.09;;;18.94;78.20
35694;BME280;21812;55.536;37.664;2023-07-29T03:12:34;98696.75;;;18.97;77.22
35694;BME280;21812;55.536;37.664;2023-07-29T03:15:00;98693.50;;;18.90;76.75
35694;BME280;21812;55.536;37.664;2023-07-29T03:17:27;98699.94;;;18.79;77.49
35694;BME280;21812;55.536;37.664;2023-07-29T03:19:52;98690.75;;;18.80;78.13
35694;BME280;21812;55.536;37.664;2023-07-29T03:22:18;98694.53;;;18.79;77.75
35694;BME280;21812;55.536;37.664;2023-07-29T03:24:44;98693.44;;;18.69;77.84
35694;BME280;21812;55.536;37.664;2023-07-29T03:27:10;98688.63;;;18.92;79.86
35694;BME280;21812;55.536;37.664;2023-07-29T03:29:35;98694.03;;;18.97;77.55
35694;BME280;21812;55.536;37.664;2023-07-29T03:32:01;98681.59;;;19.17;79.87
35694;BME280;21812;55.536;37.664;2023-07-29T03:34:27;98678.88;;;19.17;76.11
35694;BME280;21812;55.536;37.664;2023-07-29T03:36:53;98667.78;;;19.23;75.05
35694;BME280;21812;55.536;37.664;2023-07-29T03:39:19;98670.75;;;19.32;78.57
35694;BME280;21812;55.536;37.664;2023-07-29T03:41:44;98669.09;;;19.41;78.25
35694;BME280;21812;55.536;37.664;2023-07-29T03:44:10;98673.44;;;19.42;75.89
35694;BME280;21812;55.536;37.664;2023-07-29T03:46:36;98657.72;;;19.49;77.55
35694;BME280;21812;55.536;37.664;2023-07-29T03:49:02;98648.72;;;19.69;77.76
35694;BME280;21812;55.536;37.664;2023-07-29T03:51:28;98658.78;;;19.59;74.96
35694;BME280;21812;55.536;37.664;2023-07-29T03:53:54;98650.38;;;19.65;75.68
35694;BME280;21812;55.536;37.664;2023-07-29T03:56:20;98648.22;;;19.57;74.81
35694;BME280;21812;55.536;37.664;2023-07-29T03:58:46;98658.22;;;19.82;76.69
35694;BME280;21812;55.536;37.664;2023-07-29T04:01:13;98652.22;;;19.85;75.41
35694;BME280;21812;55.536;37.664;2023-07-29T04:03:39;98642.78;;;19.57;73.61
35694;BME280;21812;55.536;37.664;2023-07-29T04:06:06;98639.88;;;19.43;75.45
35694;BME280;21812;55.536;37.664;2023-07-29T04:08:33;98654.50;;;19.32;74.16
35694;BME280;21812;55.536;37.664;2023-07-29T04:10:59;98642.06;;;19.31;76.04
35694;BME280;21812;55.536;37.664;2023-07-29T04:13:24;98644.75;;;19.46;76.87
35694;BME280;21812;55.536;37.664;2023-07-29T04:15:50;98637.38;;;19.62;76.79
35694;BME280;21812;55.536;37.664;2023-07-29T04:18:16;98639.84;;;19.53;75.65
35694;BME280;21812;55.536;37.664;2023-07-29T04:20:43;98645.53;;;19.42;75.96
35694;BME280;21812;55.536;37.664;2023-07-29T04:23:09;98644.50;;;19.32;75.70
35694;BME280;21812;55.536;37.664;2023-07-29T04:25:35;98645.81;;;19.45;76.81
35694;BME280;21812;55.536;37.664;2023-07-29T04:28:00;98642.78;;;19.57;76.83
35694;BME280;21812;55.536;37.664;2023-07-29T04:30:28;98648.50;;;19.56;75.93
35694;BME280;21812;55.536;37.664;2023-07-29T04:32:55;98642.91;;;19.21;73.12
35694;BME280;21812;55.536;37.664;2023-07-29T04:35:21;98650.22;;;19.16;75.49
35694;BME280;21812;55.536;37.664;2023-07-29T04:37:47;98648.00;;;19.28;77.31
35694;BME280;21812;55.536;37.664;2023-07-29T04:40:13;98660.97;;;19.36;75.39
35694;BME280;21812;55.536;37.664;2023-07-29T04:42:39;98653.63;;;19.57;75.96
35694;BME280;21812;55.536;37.664;2023-07-29T04:45:05;98640.34;;;19.61;73.99
35694;BME280;21812;55.536;37.664;2023-07-29T04:47:32;98642.50;;;19.69;75.52
35694;BME280;21812;55.536;37.664;2023-07-29T04:49:57;98642.53;;;19.64;73.83
35694;BME280;21812;55.536;37.664;2023-07-29T04:52:24;98648.75;;;19.75;73.10
35694;BME280;21812;55.536;37.664;2023-07-29T04:54:50;98641.69;;;19.68;75.27
35694;BME280;21812;55.536;37.664;2023-07-29T04:57:16;98631.69;;;19.69;72.19
35694;BME280;21812;55.536;37.664;2023-07-29T04:59:42;98623.56;;;19.59;72.33
35694;BME280;21812;55.536;37.664;2023-07-29T05:02:07;98621.91;;;19.68;74.15
35694;BME280;21812;55.536;37.664;2023-07-29T05:04:33;98617.63;;;19.57;74.32
35694;BME280;21812;55.536;37.664;2023-07-29T05:06:59;98622.28;;;19.41;71.57
35694;BME280;21812;55.536;37.664;2023-07-29T05:09:25;98622.50;;;19.54;75.65
35694;BME280;21812;55.536;37.664;2023-07-29T05:11:51;98616.88;;;19.36;74.30
35694;BME280;21812;55.536;37.664;2023-07-29T05:14:17;98630.19;;;19.27;75.38
35694;BME280;21812;55.536;37.664;2023-07-29T05:16:44;98619.09;;;19.23;72.79
35694;BME280;21812;55.536;37.664;2023-07-29T05:19:10;98625.81;;;19.21;73.28
35694;BME280;21812;55.536;37.664;2023-07-29T05:21:37;98628.28;;;19.22;75.69
35694;BME280;21812;55.536;37.664;2023-07-29T05:24:03;98623.66;;;19.33;75.64
35694;BME280;21812;55.536;37.664;2023-07-29T05:26:29;98619.63;;;19.20;74.68
35694;BME280;21812;55.536;37.664;2023-07-29T05:28:55;98606.31;;;19.34;75.80
35694;BME280;21812;55.536;37.664;2023-07-29T05:31:22;98617.09;;;19.49;75.53
35694;BME280;21812;55.536;37.664;2023-07-29T05:33:48;98617.13;;;19.44;72.78
35694;BME280;21812;55.536;37.664;2023-07-29T05:36:14;98619.00;;;19.54;75.14
35694;BME280;21812;55.536;37.664;2023-07-29T05:38:41;98622.06;;;19.22;70.69
35694;BME280;21812;55.536;37.664;2023-07-29T05:41:07;98635.03;;;19.30;75.95
35694;BME280;21812;55.536;37.664;2023-07-29T05:43:32;98625.00;;;19.30;76.19
35694;BME280;21812;55.536;37.664;2023-07-29T05:45:59;98637.69;;;19.45;75.33
35694;BME280;21812;55.536;37.664;2023-07-29T05:48:24;98635.69;;;19.82;78.85
35694;BME280;21812;55.536;37.664;2023-07-29T05:50:50;98639.91;;;20.08;73.58
35694;BME280;21812;55.536;37.664;2023-07-29T05:53:16;98644.41;;;20.34;74.21
35694;BME280;21812;55.536;37.664;2023-07-29T05:55:42;98652.47;;;20.44;80.35
35694;BME280;21812;55.536;37.664;2023-07-29T05:58:08;98650.34;;;20.80;88.30
35694;BME280;21812;55.536;37.664;2023-07-29T06:00:35;98653.81;;;20.86;86.42
35694;BME280;21812;55.536;37.664;2023-07-29T06:03:00;98657.16;;;20.78;81.35
35694;BME280;21812;55.536;37.664;2023-07-29T06:05:26;98661.13;;;20.91;86.24
35694;BME280;21812;55.536;37.664;2023-07-29T06:07:52;98664.31;;;20.58;74.11
35694;BME280;21812;55.536;37.664;2023-07-29T06:10:18;98666.06;;;20.83;79.64
35694;BME280;21812;55.536;37.664;2023-07-29T06:12:46;98681.69;;;20.52;74.83
35694;BME280;21812;55.536;37.664;2023-07-29T06:15:13;98682.72;;;20.66;78.73
35694;BME280;21812;55.536;37.664;2023-07-29T06:17:40;98684.47;;;20.42;76.47
35694;BME280;21812;55.536;37.664;2023-07-29T06:20:06;98669.41;;;20.20;78.11
35694;BME280;21812;55.536;37.664;2023-07-29T06:22:33;98679.69;;;20.23;74.98
35694;BME280;21812;55.536;37.664;2023-07-29T06:24:59;98691.81;;;20.41;79.13
35694;BME280;21812;55.536;37.664;2023-07-29T06:27:25;98689.38;;;20.35;77.53
35694;BME280;21812;55.536;37.664;2023-07-29T06:29:51;98678.97;;;20.02;73.49
35694;BME280;21812;55.536;37.664;2023-07-29T06:32:17;98690.72;;;19.77;73.22
35694;BME280;21812;55.536;37.664;2023-07-29T06:34:42;98698.25;;;19.90;76.42
35694;BME280;21812;55.536;37.664;2023-07-29T06:37:08;98687.97;;;19.87;77.41
35694;BME280;21812;55.536;37.664;2023-07-29T06:39:34;98685.84;;;19.59;74.24
35694;BME280;21812;55.536;37.664;2023-07-29T06:42:00;98686.41;;;19.50;76.99
35694;BME280;21812;55.536;37.664;2023-07-29T06:44:25;98685.59;;;19.55;75.95
35694;BME280;21812;55.536;37.664;2023-07-29T06:46:51;98689.63;;;19.68;77.86
35694;BME280;21812;55.536;37.664;2023-07-29T06:49:17;98693.44;;;19.72;75.06
35694;BME280;21812;55.536;37.664;2023-07-29T06:51:42;98696.16;;;19.57;75.07
35694;BME280;21812;55.536;37.664;2023-07-29T06:54:08;98697.78;;;19.52;74.15
35694;BME280;21812;55.536;37.664;2023-07-29T06:56:34;98701.56;;;19.57;74.54
35694;BME280;21812;55.536;37.664;2023-07-29T06:58:59;98694.25;;;19.57;75.43
35694;BME280;21812;55.536;37.664;2023-07-29T07:01:25;98696.13;;;19.72;78.41
35694;BME280;21812;55.536;37.664;2023-07-29T07:03:51;98687.47;;;19.60;74.35
35694;BME280;21812;55.536;37.664;2023-07-29T07:06:22;98680.97;;;19.66;74.43
35694;BME280;21812;55.536;37.664;2023-07-29T07:08:50;98684.78;;;19.54;75.18
35694;BME280;21812;55.536;37.664;2023-07-29T07:11:18;98695.06;;;19.58;77.07
35694;BME280;21812;55.536;37.664;2023-07-29T07:13:44;98683.75;;;19.25;75.17
35694;BME280;21812;55.536;37.664;2023-07-29T07:16:10;98688.09;;;19.16;75.95
35694;BME280;21812;55.536;37.664;2023-07-29T07:18:36;98682.13;;;19.24;77.74
35694;BME280;21812;55.536;37.664;2023-07-29T07:21:01;98693.78;;;18.99;75.80
35694;BME280;21812;55.536;37.664;2023-07-29T07:23:27;98688.56;;;18.76;76.70
35694;BME280;21812;55.536;37.664;2023-07-29T07:25:53;98690.22;;;18.83;76.59
35694;BME280;21812;55.536;37.664;2023-07-29T07:28:19;98693.97;;;18.76;76.15
35694;BME280;21812;55.536;37.664;2023-07-29T07:30:44;98697.53;;;18.98;79.47
35694;BME280;21812;55.536;37.664;2023-07-29T07:33:10;98692.16;;;19.08;77.57
35694;BME280;21812;55.536;37.664;2023-07-29T07:35:36;98692.69;;;19.05;77.72
35694;BME280;21812;55.536;37.664;2023-07-29T07:38:02;98689.97;;;19.15;77.26
35694;BME280;21812;55.536;37.664;2023-07-29T07:40:31;98695.66;;;18.98;76.25
35694;BME280;21812;55.536;37.664;2023-07-29T07:42:57;98700.53;;;19.17;77.79
35694;BME280;21812;55.536;37.664;2023-07-29T07:45:22;98687.81;;;19.22;78.54
35694;BME280;21812;55.536;37.664;2023-07-29T07:47:48;98692.41;;;19.22;78.12
35694;BME280;21812;55.536;37.664;2023-07-29T07:50:14;98696.75;;;19.12;75.40
35694;BME280;21812;55.536;37.664;2023-07-29T07:52:39;98704.03;;;19.22;75.25
35694;BME280;21812;55.536;37.664;2023-07-29T07:55:05;98695.09;;;19.32;75.28
35694;BME280;21812;55.536;37.664;2023-07-29T07:57:31;98706.47;;;19.44;75.81
35694;BME280;21812;55.536;37.664;2023-07-29T07:59:57;98711.38;;;19.27;74.41
35694;BME280;21812;55.536;37.664;2023-07-29T08:02:23;98715.69;;;19.33;77.02
35694;BME280;21812;55.536;37.664;2023-07-29T08:04:48;98717.56;;;19.38;76.48
35694;BME280;21812;55.536;37.664;2023-07-29T08:07:14;98720.03;;;19.29;74.31
35694;BME280;21812;55.536;37.664;2023-07-29T08:09:40;98721.38;;;19.37;76.38
35694;BME280;21812;55.536;37.664;2023-07-29T08:12:06;98710.81;;;19.09;74.83
35694;BME280;21812;55.536;37.664;2023-07-29T08:14:31;98712.44;;;19.00;77.06
35694;BME280;21812;55.536;37.664;2023-07-29T08:16:58;98711.06;;;18.82;76.36
35694;BME280;21812;55.536;37.664;2023-07-29T08:19:24;98717.75;;;18.69;77.25
35694;BME280;21812;55.536;37.664;2023-07-29T08:21:50;98709.41;;;18.66;78.45
35694;BME280;21812;55.536;37.664;2023-07-29T08:24:15;98718.56;;;18.60;77.65
35694;BME280;21812;55.536;37.664;2023-07-29T08:26:41;98722.13;;;18.75;78.49
35694;BME280;21812;55.536;37.664;2023-07-29T08:29:07;98711.09;;;19.03;77.98
35694;BME280;21812;55.536;37.664;2023-07-29T08:31:32;98713.25;;;19.21;78.21
35694;BME280;21812;55.536;37.664;2023-07-29T08:34:00;98723.25;;;19.21;77.77
35694;BME280;21812;55.536;37.664;2023-07-29T08:36:26;98721.91;;;19.33;77.28
35694;BME280;21812;55.536;37.664;2023-07-29T08:38:52;98720.53;;;19.46;77.97
35694;BME280;21812;55.536;37.664;2023-07-29T08:41:35;98705.94;;;19.22;77.66
35694;BME280;21812;55.536;37.664;2023-07-29T08:44:18;98706.75;;;19.02;77.84
35694;BME280;21812;55.536;37.664;2023-07-29T08:46:46;98721.63;;;18.99;76.83
35694;BME280;21812;55.536;37.664;2023-07-29T08:49:12;98728.69;;;19.00;78.88
35694;BME280;21812;55.536;37.664;2023-07-29T08:51:45;98726.97;;;18.79;77.29
35694;BME280;21812;55.536;37.664;2023-07-29T08:54:12;98717.28;;;18.88;79.78
35694;BME280;21812;55.536;37.664;2023-07-29T08:56:41;98722.16;;;18.96;79.25
35694;BME280;21812;55.536;37.664;2023-07-29T08:59:07;98722.16;;;18.96;77.30
35694;BME280;21812;55.536;37.664;2023-07-29T09:01:33;98716.50;;;19.03;79.05
35694;BME280;21812;55.536;37.664;2023-07-29T09:03:59;98714.34;;;19.25;78.97
35694;BME280;21812;55.536;37.664;2023-07-29T09:06:25;98710.00;;;19.34;78.49
35694;BME280;21812;55.536;37.664;2023-07-29T09:08:54;98700.50;;;18.96;75.20
35694;BME280;21812;55.536;37.664;2023-07-29T09:11:21;98721.63;;;19.09;78.95
35694;BME280;21812;55.536;37.664;2023-07-29T09:13:48;98730.28;;;19.22;78.48
35694;BME280;21812;55.536;37.664;2023-07-29T09:16:13;98727.06;;;19.40;78.19
35694;BME280;21812;55.536;37.664;2023-07-29T09:18:39;98718.63;;;19.42;76.66
35694;BME280;21812;55.536;37.664;2023-07-29T09:21:05;98723.22;;;19.62;78.26
35694;BME280;21812;55.536;37.664;2023-07-29T09:23:42;98717.81;;;19.62;75.38
35694;BME280;21812;55.536;37.664;2023-07-29T09:26:08;98712.94;;;19.48;75.40
35694;BME280;21812;55.536;37.664;2023-07-29T09:28:35;98715.66;;;19.48;77.45
35694;BME280;21812;55.536;37.664;2023-07-29T09:31:02;98727.28;;;19.64;77.46
35694;BME280;21812;55.536;37.664;2023-07-29T09:33:29;98724.06;;;19.72;77.75
35694;BME280;21812;55.536;37.664;2023-07-29T09:35:57;98727.53;;;19.68;76.62
35694;BME280;21812;55.536;37.664;2023-07-29T09:38:26;98724.06;;;19.72;77.89
35694;BME280;21812;55.536;37.664;2023-07-29T09:40:55;98721.63;;;19.56;74.45
35694;BME280;21812;55.536;37.664;2023-07-29T09:43:29;98729.72;;;19.61;75.56
35694;BME280;21812;55.536;37.664;2023-07-29T09:45:54;98730.25;;;19.68;76.00
35694;BME280;21812;55.536;37.664;2023-07-29T09:48:23;98745.41;;;19.79;77.51
35694;BME280;21812;55.536;37.664;2023-07-29T09:50:49;98738.38;;;19.68;75.17
35694;BME280;21812;55.536;37.664;2023-07-29T09:53:15;98734.53;;;19.89;77.20
35694;BME280;21812;55.536;37.664;2023-07-29T09:55:46;98738.41;;;19.78;75.40
35694;BME280;21812;55.536;37.664;2023-07-29T09:58:12;98734.59;;;19.59;75.97
35694;BME280;21812;55.536;37.664;2023-07-29T10:00:38;98733.00;;;19.37;74.75
35694;BME280;21812;55.536;37.664;2023-07-29T10:03:06;98741.66;;;19.44;74.76
35694;BME280;21812;55.536;37.664;2023-07-29T10:05:32;98733.50;;;19.75;77.00
35694;BME280;21812;55.536;37.664;2023-07-29T10:08:00;98732.16;;;19.78;76.54
35694;BME280;21812;55.536;37.664;2023-07-29T10:10:27;98740.00;;;19.79;75.09
35694;BME280;21812;55.536;37.664;2023-07-29T10:12:54;98741.91;;;19.84;74.97
35694;BME280;21812;55.536;37.664;2023-07-29T10:15:20;98729.97;;;19.85;74.26
35694;BME280;21812;55.536;37.664;2023-07-29T10:17:46;98731.28;;;19.98;74.97
35694;BME280;21812;55.536;37.664;2023-07-29T10:20:12;98741.59;;;19.96;74.16
35694;BME280;21812;55.536;37.664;2023-07-29T10:22:43;98747.31;;;19.84;74.43
35694;BME280;21812;55.536;37.664;2023-07-29T10:25:38;98743.75;;;19.99;73.08
35694;BME280;21812;55.536;37.664;2023-07-29T10:28:12;98744.78;;;20.13;75.48
35694;BME280;21812;55.536;37.664;2023-07-29T10:30:38;98736.53;;;20.39;72.28
35694;BME280;21812;55.536;37.664;2023-07-29T10:33:05;98743.47;;;20.65;71.39
35694;BME280;21812;55.536;37.664;2023-07-29T10:35:34;98743.44;;;21.15;70.62
35694;BME280;21812;55.536;37.664;2023-07-29T10:38:02;98716.94;;;21.36;68.58
35694;BME280;21812;55.536;37.664;2023-07-29T10:40:57;98705.47;;;21.44;67.14
35694;BME280;21812;55.536;37.664;2023-07-29T10:43:36;98732.47;;;21.60;66.67
35694;BME280;21812;55.536;37.664;2023-07-29T10:46:17;98736.25;;;21.64;66.68
35694;BME280;21812;55.536;37.664;2023-07-29T10:48:54;98734.31;;;21.64;66.17
35694;BME280;21812;55.536;37.664;2023-07-29T10:51:36;98737.88;;;21.65;65.78
35694;BME280;21812;55.536;37.664;2023-07-29T10:54:09;98694.78;;;21.53;65.54
35694;BME280;21812;55.536;37.664;2023-07-29T10:56:36;98731.31;;;21.66;66.10
35694;BME280;21812;55.536;37.664;2023-07-29T10:59:31;98742.31;;;21.80;65.95
35694;BME280;21812;55.536;37.664;2023-07-29T11:01:59;98748.09;;;21.73;65.67
35694;BME280;21812;55.536;37.664;2023-07-29T11:04:29;98730.75;;;21.69;66.19
35694;BME280;21812;55.536;37.664;2023-07-29T11:15:03;98747.22;;;21.78;66.25
35694;BME280;21812;55.536;37.664;2023-07-29T11:17:33;98747.19;;;21.83;66.22
35694;BME280;21812;55.536;37.664;2023-07-29T11:20:03;98743.47;;;21.74;66.02
35694;BME280;21812;55.536;37.664;2023-07-29T11:22:30;98749.16;;;21.77;66.17
35694;BME280;21812;55.536;37.664;2023-07-29T11:24:56;98740.66;;;21.84;66.57
35694;BME280;21812;55.536;37.664;2023-07-29T11:27:22;98758.41;;;22.00;67.58
35694;BME280;21812;55.536;37.664;2023-07-29T11:29:48;98753.22;;;22.04;67.62
35694;BME280;21812;55.536;37.664;2023-07-29T11:32:15;98756.34;;;22.16;66.83
35694;BME280;21812;55.536;37.664;2023-07-29T11:34:42;98756.91;;;22.13;66.32
35694;BME280;21812;55.536;37.664;2023-07-29T11:37:11;98771.31;;;22.14;66.97
35694;BME280;21812;55.536;37.664;2023-07-29T11:39:40;98762.28;;;22.18;66.68
35694;BME280;21812;55.536;37.664;2023-07-29T11:42:10;98764.91;;;22.29;66.20
35694;BME280;21812;55.536;37.664;2023-07-29T11:44:36;98762.16;;;22.34;66.75
35694;BME280;21812;55.536;37.664;2023-07-29T11:47:06;98735.53;;;22.31;66.93
35694;BME280;21812;55.536;37.664;2023-07-29T11:49:33;98766.16;;;22.60;66.05
35694;BME280;21812;55.536;37.664;2023-07-29T11:51:59;98770.84;;;22.55;65.45
35694;BME280;21812;55.536;37.664;2023-07-29T11:54:25;98765.19;;;22.51;65.34
35694;BME280;21812;55.536;37.664;2023-07-29T11:56:51;98775.78;;;22.53;65.13
35694;BME280;21812;55.536;37.664;2023-07-29T11:59:17;98773.06;;;22.29;65.07
35694;BME280;21812;55.536;37.664;2023-07-29T12:01:42;98775.00;;;22.28;64.83
35694;BME280;21812;55.536;37.664;2023-07-29T12:04:09;98780.72;;;22.21;65.14
35694;BME280;21812;55.536;37.664;2023-07-29T12:06:35;98787.91;;;22.12;64.60
35694;BME280;21812;55.536;37.664;2023-07-29T12:09:03;98775.63;;;21.91;65.69
35694;BME280;21812;55.536;37.664;2023-07-29T12:11:28;98779.75;;;21.88;65.91
35694;BME280;21812;55.536;37.664;2023-07-29T12:13:54;98768.59;;;21.90;65.83
35694;BME280;21812;55.536;37.664;2023-07-29T12:16:20;98766.41;;;21.92;65.38
35694;BME280;21812;55.536;37.664;2023-07-29T12:18:46;98765.25;;;21.98;65.24
35694;BME280;21812;55.536;37.664;2023-07-29T12:21:14;98768.88;;;22.12;64.96
35694;BME280;21812;55.536;37.664;2023-07-29T12:23:40;98766.50;;;22.05;64.74
35694;BME280;21812;55.536;37.664;2023-07-29T12:26:06;98771.06;;;22.10;64.66
35694;BME280;21812;55.536;37.664;2023-07-29T12:28:31;98761.41;;;21.99;64.67
35694;BME280;21812;55.536;37.664;2023-07-29T12:30:57;98761.19;;;21.95;64.96
35694;BME280;21812;55.536;37.664;2023-07-29T12:33:36;98760.38;;;21.95;64.72
35694;BME280;21812;55.536;37.664;2023-07-29T12:36:07;98761.66;;;22.02;64.86
35694;BME280;21812;55.536;37.664;2023-07-29T12:38:33;98753.44;;;22.08;64.78
35694;BME280;21812;55.536;37.664;2023-07-29T12:40:59;98759.28;;;21.96;64.82
35694;BME280;21812;55.536;37.664;2023-07-29T12:43:25;98763.16;;;21.90;64.63
35694;BME280;21812;55.536;37.664;2023-07-29T12:45:51;98767.44;;;21.96;64.90
35694;BME280;21812;55.536;37.664;2023-07-29T12:48:17;98761.75;;;21.92;65.10
35694;BME280;21812;55.536;37.664;2023-07-29T12:50:43;98762.09;;;21.85;64.33
35694;BME280;21812;55.536;37.664;2023-07-29T12:53:09;98768.13;;;21.82;65.39
35694;BME280;21812;55.536;37.664;2023-07-29T12:55:36;98767.75;;;21.89;65.29
35694;BME280;21812;55.536;37.664;2023-07-29T12:58:02;98768.53;;;21.95;65.00
35694;BME280;21812;55.536;37.664;2023-07-29T13:00:28;98763.16;;;21.90;64.79
35694;BME280;21812;55.536;37.664;2023-07-29T13:02:54;98773.44;;;21.93;64.80
35694;BME280;21812;55.536;37.664;2023-07-29T13:05:20;98774.72;;;21.76;64.79